sensor_id;sensor_type;location;lat;lon;timestamp;P1;durP1;ratioP1;P2;durP2;ratioP2
50773;SDS011;36745;48.544;8.918;2024-03-23T00:56:45;13.13;;;10.63;;
50773;SDS011;36745;48.544;8.918;2024-03-23T01:00:05;17.52;;;10.15;;
50773;SDS011;36745;48.544;8.918;2024-03-23T01:03:25;18.20;;;10.15;;
50773;SDS011;36745;48.544;8.918;2024-03-23T01:06:45;12.30;;;9.55;;
50773;SDS011;36745;48.544;8.918;2024-03-23T01:10:05;16.90;;;10.32;;
50773;SDS011;36745;48.544;8.918;2024-03-23T01:13:25;15.48;;;10.13;;
50773;SDS011;36745;48.544;8.918;2024-03-23T01:16:45;14.63;;;9.80;;
50773;SDS011;36745;48.544;8.918;2024-03-23T01:20:05;17.60;;;10.85;;
50773;SDS011;36745;48.544;8.918;2024-03-23T01:23:25;19.67;;;10.63;;
50773;SDS011;36745;48.544;8.918;2024-03-23T01:26:45;11.43;;;9.30;;
50773;SDS011;36745;48.544;8.918;2024-03-23T01:30:05;16.77;;;10.68;;
50773;SDS011;36745;48.544;8.918;2024-03-23T01:33:25;12.85;;;9.65;;
50773;SDS011;36745;48.544;8.918;2024-03-23T01:36:45;16.45;;;9.90;;
50773;SDS011;36745;48.544;8.918;2024-03-23T01:40:05;13.98;;;9.55;;
50773;SDS011;36745;48.544;8.918;2024-03-23T01:43:26;17.83;;;10.70;;
50773;SDS011;36745;48.544;8.918;2024-03-23T01:46:45;15.18;;;10.50;;
50773;SDS011;36745;48.544;8.918;2024-03-23T01:50:05;16.92;;;11.18;;
50773;SDS011;36745;48.544;8.918;2024-03-23T01:53:26;17.50;;;10.68;;
50773;SDS011;36745;48.544;8.918;2024-03-23T01:56:46;18.40;;;10.40;;
50773;SDS011;36745;48.544;8.918;2024-03-23T02:00:06;16.40;;;10.60;;
50773;SDS011;36745;48.544;8.918;2024-03-23T02:03:27;17.73;;;10.98;;
50773;SDS011;36745;48.544;8.918;2024-03-23T02:06:47;16.33;;;10.35;;
50773;SDS011;36745;48.544;8.918;2024-03-23T02:10:07;15.38;;;10.15;;
50773;SDS011;36745;48.544;8.918;2024-03-23T02:13:29;14.95;;;9.68;;
50773;SDS011;36745;48.544;8.918;2024-03-23T02:16:48;12.35;;;8.80;;
50773;SDS011;36745;48.544;8.918;2024-03-23T02:20:08;14.18;;;9.00;;
50773;SDS011;36745;48.544;8.918;2024-03-23T02:23:31;12.45;;;8.02;;
50773;SDS011;36745;48.544;8.918;2024-03-23T02:26:51;18.02;;;8.77;;
50773;SDS011;36745;48.544;8.918;2024-03-23T02:30:11;15.00;;;9.15;;
50773;SDS011;36745;48.544;8.918;2024-03-23T02:33:30;10.18;;;7.50;;
50773;SDS011;36745;48.544;8.918;2024-03-23T02:36:51;11.57;;;7.05;;
50773;SDS011;36745;48.544;8.918;2024-03-23T02:40:11;14.10;;;8.05;;
50773;SDS011;36745;48.544;8.918;2024-03-23T02:43:31;9.48;;;7.18;;
50773;SDS011;36745;48.544;8.918;2024-03-23T02:46:51;10.18;;;7.65;;
50773;SDS011;36745;48.544;8.918;2024-03-23T02:50:11;11.05;;;6.97;;
50773;SDS011;36745;48.544;8.918;2024-03-23T02:53:30;10.70;;;7.05;;
50773;SDS011;36745;48.544;8.918;2024-03-23T02:56:50;10.13;;;7.13;;
50773;SDS011;36745;48.544;8.918;2024-03-23T03:00:10;8.77;;;6.72;;
50773;SDS011;36745;48.544;8.918;2024-03-23T03:03:30;10.23;;;7.30;;
50773;SDS011;36745;48.544;8.918;2024-03-23T03:06:50;8.70;;;6.30;;
50773;SDS011;36745;48.544;8.918;2024-03-23T03:10:10;9.75;;;6.28;;
50773;SDS011;36745;48.544;8.918;2024-03-23T03:13:30;8.75;;;7.00;;
50773;SDS011;36745;48.544;8.918;2024-03-23T03:16:50;11.07;;;6.70;;
50773;SDS011;36745;48.544;8.918;2024-03-23T03:20:09;8.55;;;6.68;;
50773;SDS011;36745;48.544;8.918;2024-03-23T03:23:32;9.07;;;6.28;;
50773;SDS011;36745;48.544;8.918;2024-03-23T03:26:52;8.73;;;6.63;;
50773;SDS011;36745;48.544;8.918;2024-03-23T03:30:12;11.95;;;7.25;;
50773;SDS011;36745;48.544;8.918;2024-03-23T03:33:32;9.43;;;6.97;;
50773;SDS011;36745;48.544;8.918;2024-03-23T03:36:52;10.60;;;6.68;;
50773;SDS011;36745;48.544;8.918;2024-03-23T03:40:12;9.18;;;6.57;;
50773;SDS011;36745;48.544;8.918;2024-03-23T03:43:34;11.13;;;6.55;;
50773;SDS011;36745;48.544;8.918;2024-03-23T03:46:53;10.13;;;6.55;;
50773;SDS011;36745;48.544;8.918;2024-03-23T03:50:13;10.65;;;6.70;;
50773;SDS011;36745;48.544;8.918;2024-03-23T03:53:33;8.30;;;5.97;;
50773;SDS011;36745;48.544;8.918;2024-03-23T03:56:53;6.95;;;6.25;;
50773;SDS011;36745;48.544;8.918;2024-03-23T04:00:13;7.80;;;5.93;;
50773;SDS011;36745;48.544;8.918;2024-03-23T04:03:32;9.52;;;6.45;;
50773;SDS011;36745;48.544;8.918;2024-03-23T04:07:01;9.52;;;6.32;;
50773;SDS011;36745;48.544;8.918;2024-03-23T04:10:22;7.57;;;5.90;;
50773;SDS011;36745;48.544;8.918;2024-03-23T04:13:42;8.10;;;6.07;;
50773;SDS011;36745;48.544;8.918;2024-03-23T04:17:03;9.27;;;5.97;;
50773;SDS011;36745;48.544;8.918;2024-03-23T04:20:22;8.30;;;5.97;;
50773;SDS011;36745;48.544;8.918;2024-03-23T04:23:42;8.50;;;6.35;;
50773;SDS011;36745;48.544;8.918;2024-03-23T04:27:02;8.93;;;6.10;;
50773;SDS011;36745;48.544;8.918;2024-03-23T04:30:22;9.30;;;6.07;;
50773;SDS011;36745;48.544;8.918;2024-03-23T04:33:44;7.88;;;6.40;;
50773;SDS011;36745;48.544;8.918;2024-03-23T04:37:04;11.52;;;5.95;;
50773;SDS011;36745;48.544;8.918;2024-03-23T04:40:24;11.10;;;6.10;;
50773;SDS011;36745;48.544;8.918;2024-03-23T04:43:45;8.50;;;6.10;;
50773;SDS011;36745;48.544;8.918;2024-03-23T04:47:04;8.48;;;6.22;;
50773;SDS011;36745;48.544;8.918;2024-03-23T04:50:25;8.27;;;6.07;;
50773;SDS011;36745;48.544;8.918;2024-03-23T04:53:45;10.10;;;7.05;;
50773;SDS011;36745;48.544;8.918;2024-03-23T04:57:04;9.45;;;6.90;;
50773;SDS011;36745;48.544;8.918;2024-03-23T05:00:25;7.80;;;6.63;;
50773;SDS011;36745;48.544;8.918;2024-03-23T05:03:45;13.77;;;8.00;;
50773;SDS011;36745;48.544;8.918;2024-03-23T05:07:05;9.25;;;7.18;;
50773;SDS011;36745;48.544;8.918;2024-03-23T05:10:25;11.20;;;8.07;;
50773;SDS011;36745;48.544;8.918;2024-03-23T05:13:44;12.63;;;7.68;;
50773;SDS011;36745;48.544;8.918;2024-03-23T05:17:04;11.68;;;7.70;;
50773;SDS011;36745;48.544;8.918;2024-03-23T05:20:24;11.45;;;7.55;;
50773;SDS011;36745;48.544;8.918;2024-03-23T05:23:44;18.10;;;8.30;;
50773;SDS011;36745;48.544;8.918;2024-03-23T05:27:04;11.88;;;7.80;;
50773;SDS011;36745;48.544;8.918;2024-03-23T05:30:23;15.30;;;7.97;;
50773;SDS011;36745;48.544;8.918;2024-03-23T05:33:44;12.68;;;9.07;;
50773;SDS011;36745;48.544;8.918;2024-03-23T05:37:04;14.48;;;10.15;;
50773;SDS011;36745;48.544;8.918;2024-03-23T05:40:24;16.35;;;10.55;;
50773;SDS011;36745;48.544;8.918;2024-03-23T05:43:45;13.82;;;9.43;;
50773;SDS011;36745;48.544;8.918;2024-03-23T05:47:05;10.65;;;8.38;;
50773;SDS011;36745;48.544;8.918;2024-03-23T05:50:25;12.50;;;8.27;;
50773;SDS011;36745;48.544;8.918;2024-03-23T05:53:45;13.05;;;8.07;;
50773;SDS011;36745;48.544;8.918;2024-03-23T05:57:05;10.65;;;7.43;;
50773;SDS011;36745;48.544;8.918;2024-03-23T06:00:26;15.10;;;7.72;;
50773;SDS011;36745;48.544;8.918;2024-03-23T06:03:46;6.85;;;5.63;;
50773;SDS011;36745;48.544;8.918;2024-03-23T06:07:06;4.22;;;3.50;;
50773;SDS011;36745;48.544;8.918;2024-03-23T06:10:29;2.97;;;2.22;;
50773;SDS011;36745;48.544;8.918;2024-03-23T06:13:48;1.63;;;1.40;;
50773;SDS011;36745;48.544;8.918;2024-03-23T06:17:08;1.95;;;1.20;;
50773;SDS011;36745;48.544;8.918;2024-03-23T06:20:28;3.20;;;2.05;;
50773;SDS011;36745;48.544;8.918;2024-03-23T06:23:48;3.40;;;1.92;;
50773;SDS011;36745;48.544;8.918;2024-03-23T06:27:11;2.28;;;1.90;;
50773;SDS011;36745;48.544;8.918;2024-03-23T06:30:32;2.28;;;1.80;;
50773;SDS011;36745;48.544;8.918;2024-03-23T06:33:52;1.17;;;1.10;;
50773;SDS011;36745;48.544;8.918;2024-03-23T06:37:12;2.45;;;1.77;;
50773;SDS011;36745;48.544;8.918;2024-03-23T06:40:32;3.38;;;1.70;;
50773;SDS011;36745;48.544;8.918;2024-03-23T06:43:52;1.40;;;1.08;;
50773;SDS011;36745;48.544;8.918;2024-03-23T06:47:11;2.03;;;1.55;;
50773;SDS011;36745;48.544;8.918;2024-03-23T06:50:31;3.45;;;1.70;;
50773;SDS011;36745;48.544;8.918;2024-03-23T06:53:51;6.45;;;2.20;;
50773;SDS011;36745;48.544;8.918;2024-03-23T06:57:11;7.55;;;2.50;;
50773;SDS011;36745;48.544;8.918;2024-03-23T07:00:31;5.15;;;2.10;;
50773;SDS011;36745;48.544;8.918;2024-03-23T07:03:51;2.42;;;1.52;;
50773;SDS011;36745;48.544;8.918;2024-03-23T07:07:11;1.83;;;1.40;;
50773;SDS011;36745;48.544;8.918;2024-03-23T07:10:31;1.50;;;1.20;;
50773;SDS011;36745;48.544;8.918;2024-03-23T07:13:51;1.10;;;0.90;;
50773;SDS011;36745;48.544;8.918;2024-03-23T07:17:13;2.33;;;0.70;;
50773;SDS011;36745;48.544;8.918;2024-03-23T07:20:33;1.55;;;0.63;;
50773;SDS011;36745;48.544;8.918;2024-03-23T07:23:55;1.45;;;0.60;;
50773;SDS011;36745;48.544;8.918;2024-03-23T07:27:14;0.75;;;0.70;;
50773;SDS011;36745;48.544;8.918;2024-03-23T07:30:34;0.50;;;0.50;;
50773;SDS011;36745;48.544;8.918;2024-03-23T07:33:54;0.57;;;0.57;;
50773;SDS011;36745;48.544;8.918;2024-03-23T07:37:14;1.38;;;0.50;;
50773;SDS011;36745;48.544;8.918;2024-03-23T07:40:34;0.40;;;0.40;;
50773;SDS011;36745;48.544;8.918;2024-03-23T07:43:54;0.65;;;0.30;;
50773;SDS011;36745;48.544;8.918;2024-03-23T07:47:14;0.20;;;0.20;;
50773;SDS011;36745;48.544;8.918;2024-03-23T07:50:34;0.20;;;0.20;;
50773;SDS011;36745;48.544;8.918;2024-03-23T07:53:53;0.40;;;0.30;;
50773;SDS011;36745;48.544;8.918;2024-03-23T07:57:13;0.45;;;0.40;;
50773;SDS011;36745;48.544;8.918;2024-03-23T08:00:33;0.50;;;0.40;;
50773;SDS011;36745;48.544;8.918;2024-03-23T08:03:53;0.85;;;0.80;;
50773;SDS011;36745;48.544;8.918;2024-03-23T08:07:13;1.48;;;0.75;;
50773;SDS011;36745;48.544;8.918;2024-03-23T08:10:33;2.65;;;1.23;;
50773;SDS011;36745;48.544;8.918;2024-03-23T08:13:53;3.75;;;1.63;;
50773;SDS011;36745;48.544;8.918;2024-03-23T08:17:12;4.30;;;1.30;;
50773;SDS011;36745;48.544;8.918;2024-03-23T08:20:32;4.55;;;1.23;;
50773;SDS011;36745;48.544;8.918;2024-03-23T08:23:52;3.58;;;1.48;;
50773;SDS011;36745;48.544;8.918;2024-03-23T08:27:12;3.53;;;1.70;;
50773;SDS011;36745;48.544;8.918;2024-03-23T08:30:32;2.47;;;1.58;;
50773;SDS011;36745;48.544;8.918;2024-03-23T08:33:54;4.47;;;1.90;;
50773;SDS011;36745;48.544;8.918;2024-03-23T08:37:14;4.32;;;2.05;;
50773;SDS011;36745;48.544;8.918;2024-03-23T08:40:33;5.05;;;2.38;;
50773;SDS011;36745;48.544;8.918;2024-03-23T08:43:53;4.20;;;2.53;;
50773;SDS011;36745;48.544;8.918;2024-03-23T08:47:13;5.35;;;3.00;;
50773;SDS011;36745;48.544;8.918;2024-03-23T08:50:33;6.13;;;3.28;;
50773;SDS011;36745;48.544;8.918;2024-03-23T08:53:53;8.88;;;4.40;;
50773;SDS011;36745;48.544;8.918;2024-03-23T08:57:13;6.25;;;3.83;;
50773;SDS011;36745;48.544;8.918;2024-03-23T09:00:33;6.63;;;3.97;;
50773;SDS011;36745;48.544;8.918;2024-03-23T09:03:53;13.02;;;6.53;;
50773;SDS011;36745;48.544;8.918;2024-03-23T09:07:12;14.23;;;7.43;;
50773;SDS011;36745;48.544;8.918;2024-03-23T09:10:37;12.27;;;4.28;;
50773;SDS011;36745;48.544;8.918;2024-03-23T09:13:57;9.15;;;4.75;;
50773;SDS011;36745;48.544;8.918;2024-03-23T09:17:17;10.23;;;4.32;;
50773;SDS011;36745;48.544;8.918;2024-03-23T09:20:37;8.95;;;5.18;;
50773;SDS011;36745;48.544;8.918;2024-03-23T09:23:57;10.18;;;5.55;;
50773;SDS011;36745;48.544;8.918;2024-03-23T09:27:17;7.00;;;4.22;;
50773;SDS011;36745;48.544;8.918;2024-03-23T09:30:37;9.55;;;4.80;;
50773;SDS011;36745;48.544;8.918;2024-03-23T09:34:01;7.80;;;4.47;;
50773;SDS011;36745;48.544;8.918;2024-03-23T09:37:21;13.82;;;4.68;;
50773;SDS011;36745;48.544;8.918;2024-03-23T09:40:42;8.10;;;3.95;;
50773;SDS011;36745;48.544;8.918;2024-03-23T09:44:02;7.97;;;3.58;;
50773;SDS011;36745;48.544;8.918;2024-03-23T09:47:22;13.80;;;3.78;;
50773;SDS011;36745;48.544;8.918;2024-03-23T09:50:43;9.85;;;3.95;;
50773;SDS011;36745;48.544;8.918;2024-03-23T09:54:03;4.30;;;3.42;;
50773;SDS011;36745;48.544;8.918;2024-03-23T09:57:23;6.60;;;3.83;;
50773;SDS011;36745;48.544;8.918;2024-03-23T10:00:43;8.45;;;4.07;;
50773;SDS011;36745;48.544;8.918;2024-03-23T10:04:03;10.15;;;4.20;;
50773;SDS011;36745;48.544;8.918;2024-03-23T10:07:23;10.82;;;4.00;;
50773;SDS011;36745;48.544;8.918;2024-03-23T10:10:43;7.32;;;4.13;;
50773;SDS011;36745;48.544;8.918;2024-03-23T10:14:04;7.60;;;3.30;;
50773;SDS011;36745;48.544;8.918;2024-03-23T10:17:25;7.95;;;3.70;;
50773;SDS011;36745;48.544;8.918;2024-03-23T10:20:47;5.28;;;3.90;;
50773;SDS011;36745;48.544;8.918;2024-03-23T10:24:11;10.02;;;3.80;;
50773;SDS011;36745;48.544;8.918;2024-03-23T10:27:32;9.80;;;4.00;;
50773;SDS011;36745;48.544;8.918;2024-03-23T10:30:52;14.75;;;4.15;;
50773;SDS011;36745;48.544;8.918;2024-03-23T10:34:12;12.45;;;4.32;;
50773;SDS011;36745;48.544;8.918;2024-03-23T10:37:31;16.10;;;4.80;;
50773;SDS011;36745;48.544;8.918;2024-03-23T10:40:52;17.58;;;5.30;;
50773;SDS011;36745;48.544;8.918;2024-03-23T10:44:14;9.68;;;3.72;;
50773;SDS011;36745;48.544;8.918;2024-03-23T10:47:35;6.75;;;2.33;;
50773;SDS011;36745;48.544;8.918;2024-03-23T10:50:57;5.55;;;2.50;;
50773;SDS011;36745;48.544;8.918;2024-03-23T10:54:16;6.30;;;2.05;;
50773;SDS011;36745;48.544;8.918;2024-03-23T10:57:54;4.63;;;2.03;;
50773;SDS011;36745;48.544;8.918;2024-03-23T11:01:15;5.35;;;1.85;;
50773;SDS011;36745;48.544;8.918;2024-03-23T11:04:36;3.55;;;1.88;;
50773;SDS011;36745;48.544;8.918;2024-03-23T11:11:19;7.95;;;2.40;;
50773;SDS011;36745;48.544;8.918;2024-03-23T11:14:44;7.20;;;2.17;;
50773;SDS011;36745;48.544;8.918;2024-03-23T11:22:08;8.00;;;3.35;;
50773;SDS011;36745;48.544;8.918;2024-03-23T11:25:23;11.43;;;3.35;;
50773;SDS011;36745;48.544;8.918;2024-03-23T11:28:44;11.60;;;3.15;;
50773;SDS011;36745;48.544;8.918;2024-03-23T11:32:05;15.13;;;3.90;;
50773;SDS011;36745;48.544;8.918;2024-03-23T11:38:54;13.48;;;3.80;;
50773;SDS011;36745;48.544;8.918;2024-03-23T11:42:14;10.70;;;2.80;;
50773;SDS011;36745;48.544;8.918;2024-03-23T11:45:35;7.13;;;2.10;;
50773;SDS011;36745;48.544;8.918;2024-03-23T11:48:58;17.65;;;5.07;;
50773;SDS011;36745;48.544;8.918;2024-03-23T11:52:18;11.18;;;3.00;;
50773;SDS011;36745;48.544;8.918;2024-03-23T11:59:00;14.65;;;4.57;;
50773;SDS011;36745;48.544;8.918;2024-03-23T12:02:20;14.15;;;3.63;;
50773;SDS011;36745;48.544;8.918;2024-03-23T12:05:40;13.40;;;3.40;;
50773;SDS011;36745;48.544;8.918;2024-03-23T12:09:06;10.57;;;3.13;;
50773;SDS011;36745;48.544;8.918;2024-03-23T12:12:26;14.38;;;3.13;;
50773;SDS011;36745;48.544;8.918;2024-03-23T12:15:49;12.30;;;3.70;;
50773;SDS011;36745;48.544;8.918;2024-03-23T12:19:10;14.23;;;3.38;;
50773;SDS011;36745;48.544;8.918;2024-03-23T12:22:30;5.35;;;2.80;;
50773;SDS011;36745;48.544;8.918;2024-03-23T12:25:49;7.38;;;2.53;;
50773;SDS011;36745;48.544;8.918;2024-03-23T12:29:09;7.80;;;2.88;;
50773;SDS011;36745;48.544;8.918;2024-03-23T12:32:29;5.22;;;2.50;;
50773;SDS011;36745;48.544;8.918;2024-03-23T12:35:52;4.15;;;2.40;;
50773;SDS011;36745;48.544;8.918;2024-03-23T12:42:32;6.97;;;2.30;;
50773;SDS011;36745;48.544;8.918;2024-03-23T12:45:52;19.52;;;6.50;;
50773;SDS011;36745;48.544;8.918;2024-03-23T12:49:12;9.48;;;3.38;;
50773;SDS011;36745;48.544;8.918;2024-03-23T12:52:32;6.00;;;2.42;;
50773;SDS011;36745;48.544;8.918;2024-03-23T12:55:52;5.03;;;2.25;;
50773;SDS011;36745;48.544;8.918;2024-03-23T12:59:13;7.05;;;2.30;;
50773;SDS011;36745;48.544;8.918;2024-03-23T13:02:32;21.38;;;2.33;;
50773;SDS011;36745;48.544;8.918;2024-03-23T13:05:54;5.25;;;2.80;;
50773;SDS011;36745;48.544;8.918;2024-03-23T13:09:14;3.00;;;1.27;;
50773;SDS011;36745;48.544;8.918;2024-03-23T13:12:33;6.15;;;1.90;;
50773;SDS011;36745;48.544;8.918;2024-03-23T13:15:53;4.82;;;1.90;;
50773;SDS011;36745;48.544;8.918;2024-03-23T13:19:13;5.97;;;2.55;;
50773;SDS011;36745;48.544;8.918;2024-03-23T13:22:33;9.63;;;3.13;;
50773;SDS011;36745;48.544;8.918;2024-03-23T13:25:55;7.70;;;2.40;;
50773;SDS011;36745;48.544;8.918;2024-03-23T13:29:15;5.13;;;2.00;;
50773;SDS011;36745;48.544;8.918;2024-03-23T13:32:35;4.40;;;1.73;;
50773;SDS011;36745;48.544;8.918;2024-03-23T13:35:55;7.25;;;2.10;;
50773;SDS011;36745;48.544;8.918;2024-03-23T13:39:15;7.43;;;2.10;;
50773;SDS011;36745;48.544;8.918;2024-03-23T13:42:35;6.80;;;1.80;;
50773;SDS011;36745;48.544;8.918;2024-03-23T13:45:56;4.50;;;1.48;;
50773;SDS011;36745;48.544;8.918;2024-03-23T13:49:26;4.35;;;1.30;;
50773;SDS011;36745;48.544;8.918;2024-03-23T13:52:47;4.97;;;1.20;;
50773;SDS011;36745;48.544;8.918;2024-03-23T13:56:07;7.57;;;1.60;;
50773;SDS011;36745;48.544;8.918;2024-03-23T13:59:26;3.53;;;1.25;;
50773;SDS011;36745;48.544;8.918;2024-03-23T14:02:47;3.45;;;1.10;;
50773;SDS011;36745;48.544;8.918;2024-03-23T14:06:07;3.72;;;1.15;;
50773;SDS011;36745;48.544;8.918;2024-03-23T14:09:27;5.25;;;1.33;;
50773;SDS011;36745;48.544;8.918;2024-03-23T14:12:49;6.38;;;1.65;;
50773;SDS011;36745;48.544;8.918;2024-03-23T14:16:09;5.82;;;1.60;;
50773;SDS011;36745;48.544;8.918;2024-03-23T14:19:29;3.90;;;1.38;;
50773;SDS011;36745;48.544;8.918;2024-03-23T14:22:49;4.55;;;1.50;;
50773;SDS011;36745;48.544;8.918;2024-03-23T14:26:09;7.80;;;1.65;;
50773;SDS011;36745;48.544;8.918;2024-03-23T14:29:29;6.70;;;1.60;;
50773;SDS011;36745;48.544;8.918;2024-03-23T14:32:49;4.53;;;1.75;;
50773;SDS011;36745;48.544;8.918;2024-03-23T14:36:09;4.57;;;1.40;;
50773;SDS011;36745;48.544;8.918;2024-03-23T14:39:28;5.43;;;1.80;;
50773;SDS011;36745;48.544;8.918;2024-03-23T14:42:49;4.88;;;1.52;;
50773;SDS011;36745;48.544;8.918;2024-03-23T14:46:09;6.05;;;1.50;;
50773;SDS011;36745;48.544;8.918;2024-03-23T14:49:29;9.23;;;1.67;;
50773;SDS011;36745;48.544;8.918;2024-03-23T14:52:50;6.78;;;1.73;;
50773;SDS011;36745;48.544;8.918;2024-03-23T14:56:10;3.63;;;1.27;;
50773;SDS011;36745;48.544;8.918;2024-03-23T14:59:32;5.70;;;1.75;;
50773;SDS011;36745;48.544;8.918;2024-03-23T15:02:52;5.55;;;2.97;;
50773;SDS011;36745;48.544;8.918;2024-03-23T15:06:12;4.38;;;1.67;;
50773;SDS011;36745;48.544;8.918;2024-03-23T15:09:32;4.18;;;2.35;;
50773;SDS011;36745;48.544;8.918;2024-03-23T15:12:52;4.05;;;1.30;;
50773;SDS011;36745;48.544;8.918;2024-03-23T15:16:11;3.92;;;1.27;;
50773;SDS011;36745;48.544;8.918;2024-03-23T15:19:35;2.70;;;1.33;;
50773;SDS011;36745;48.544;8.918;2024-03-23T15:22:55;3.17;;;1.25;;
50773;SDS011;36745;48.544;8.918;2024-03-23T15:26:15;4.82;;;1.67;;
50773;SDS011;36745;48.544;8.918;2024-03-23T15:29:38;5.93;;;2.05;;
50773;SDS011;36745;48.544;8.918;2024-03-23T15:32:58;4.97;;;1.85;;
50773;SDS011;36745;48.544;8.918;2024-03-23T15:36:18;6.75;;;2.97;;
50773;SDS011;36745;48.544;8.918;2024-03-23T15:39:37;5.43;;;1.60;;
50773;SDS011;36745;48.544;8.918;2024-03-23T15:46:41;6.65;;;2.97;;
50773;SDS011;36745;48.544;8.918;2024-03-23T15:50:02;7.35;;;1.98;;
50773;SDS011;36745;48.544;8.918;2024-03-23T15:53:27;5.35;;;1.60;;
50773;SDS011;36745;48.544;8.918;2024-03-23T15:56:49;6.85;;;3.70;;
50773;SDS011;36745;48.544;8.918;2024-03-23T16:00:09;4.93;;;1.60;;
50773;SDS011;36745;48.544;8.918;2024-03-23T16:03:30;6.25;;;1.98;;
50773;SDS011;36745;48.544;8.918;2024-03-23T16:06:51;5.43;;;1.75;;
50773;SDS011;36745;48.544;8.918;2024-03-23T16:10:11;5.78;;;1.90;;
50773;SDS011;36745;48.544;8.918;2024-03-23T16:13:31;7.13;;;1.90;;
50773;SDS011;36745;48.544;8.918;2024-03-23T16:16:51;4.93;;;1.40;;
50773;SDS011;36745;48.544;8.918;2024-03-23T16:20:11;3.45;;;1.10;;
50773;SDS011;36745;48.544;8.918;2024-03-23T16:23:32;2.25;;;0.65;;
50773;SDS011;36745;48.544;8.918;2024-03-23T16:26:52;3.10;;;0.90;;
50773;SDS011;36745;48.544;8.918;2024-03-23T16:30:13;2.85;;;0.80;;
50773;SDS011;36745;48.544;8.918;2024-03-23T16:33:33;3.53;;;0.90;;
50773;SDS011;36745;48.544;8.918;2024-03-23T16:36:54;4.10;;;0.93;;
50773;SDS011;36745;48.544;8.918;2024-03-23T16:40:13;2.20;;;1.20;;
50773;SDS011;36745;48.544;8.918;2024-03-23T16:43:34;5.38;;;1.05;;
50773;SDS011;36745;48.544;8.918;2024-03-23T16:46:55;4.03;;;0.80;;
50773;SDS011;36745;48.544;8.918;2024-03-23T16:50:15;2.45;;;1.00;;
50773;SDS011;36745;48.544;8.918;2024-03-23T16:53:35;3.42;;;0.70;;
50773;SDS011;36745;48.544;8.918;2024-03-23T16:56:55;6.22;;;2.40;;
50773;SDS011;36745;48.544;8.918;2024-03-23T17:00:15;4.90;;;2.20;;
50773;SDS011;36745;48.544;8.918;2024-03-23T17:03:35;2.20;;;0.80;;
50773;SDS011;36745;48.544;8.918;2024-03-23T17:06:55;17.13;;;7.18;;
50773;SDS011;36745;48.544;8.918;2024-03-23T17:10:15;8.93;;;3.92;;
50773;SDS011;36745;48.544;8.918;2024-03-23T17:13:35;5.35;;;2.33;;
50773;SDS011;36745;48.544;8.918;2024-03-23T17:16:54;9.82;;;5.45;;
50773;SDS011;36745;48.544;8.918;2024-03-23T17:20:14;6.00;;;2.17;;
50773;SDS011;36745;48.544;8.918;2024-03-23T17:23:34;9.27;;;3.60;;
50773;SDS011;36745;48.544;8.918;2024-03-23T17:26:55;6.28;;;2.35;;
50773;SDS011;36745;48.544;8.918;2024-03-23T17:30:15;5.00;;;1.05;;
50773;SDS011;36745;48.544;8.918;2024-03-23T17:33:36;1.95;;;0.98;;
50773;SDS011;36745;48.544;8.918;2024-03-23T17:36:57;2.30;;;1.05;;
50773;SDS011;36745;48.544;8.918;2024-03-23T17:40:22;1.95;;;0.82;;
50773;SDS011;36745;48.544;8.918;2024-03-23T17:43:44;3.97;;;0.98;;
50773;SDS011;36745;48.544;8.918;2024-03-23T17:47:04;4.90;;;1.50;;
50773;SDS011;36745;48.544;8.918;2024-03-23T17:50:23;6.53;;;2.85;;
50773;SDS011;36745;48.544;8.918;2024-03-23T17:53:43;5.00;;;1.10;;
50773;SDS011;36745;48.544;8.918;2024-03-23T17:57:05;2.78;;;1.10;;
50773;SDS011;36745;48.544;8.918;2024-03-23T18:00:25;3.80;;;1.90;;
50773;SDS011;36745;48.544;8.918;2024-03-23T18:03:45;3.10;;;1.00;;
50773;SDS011;36745;48.544;8.918;2024-03-23T18:07:05;4.40;;;1.08;;
50773;SDS011;36745;48.544;8.918;2024-03-23T18:10:25;5.68;;;2.35;;
50773;SDS011;36745;48.544;8.918;2024-03-23T18:13:44;4.75;;;1.55;;
50773;SDS011;36745;48.544;8.918;2024-03-23T18:17:04;3.35;;;1.15;;
50773;SDS011;36745;48.544;8.918;2024-03-23T18:20:24;3.95;;;1.92;;
50773;SDS011;36745;48.544;8.918;2024-03-23T18:23:47;3.95;;;1.92;;
50773;SDS011;36745;48.544;8.918;2024-03-23T18:27:06;8.55;;;3.85;;
50773;SDS011;36745;48.544;8.918;2024-03-23T18:30:28;4.88;;;3.10;;
50773;SDS011;36745;48.544;8.918;2024-03-23T18:33:48;4.88;;;2.75;;
50773;SDS011;36745;48.544;8.918;2024-03-23T18:37:08;5.80;;;2.40;;
50773;SDS011;36745;48.544;8.918;2024-03-23T18:40:28;11.05;;;5.40;;
50773;SDS011;36745;48.544;8.918;2024-03-23T18:43:48;5.95;;;3.10;;
50773;SDS011;36745;48.544;8.918;2024-03-23T18:47:08;6.30;;;3.00;;
50773;SDS011;36745;48.544;8.918;2024-03-23T18:50:28;14.88;;;5.75;;
50773;SDS011;36745;48.544;8.918;2024-03-23T18:53:48;6.38;;;3.97;;
50773;SDS011;36745;48.544;8.918;2024-03-23T18:57:08;10.15;;;6.32;;
50773;SDS011;36745;48.544;8.918;2024-03-23T19:00:27;7.57;;;4.65;;
50773;SDS011;36745;48.544;8.918;2024-03-23T19:03:47;9.50;;;4.80;;
50773;SDS011;36745;48.544;8.918;2024-03-23T19:07:07;4.65;;;2.83;;
50773;SDS011;36745;48.544;8.918;2024-03-23T19:10:27;7.13;;;3.15;;
50773;SDS011;36745;48.544;8.918;2024-03-23T19:13:47;7.93;;;2.78;;
50773;SDS011;36745;48.544;8.918;2024-03-23T19:17:07;15.70;;;8.52;;
50773;SDS011;36745;48.544;8.918;2024-03-23T19:20:27;6.68;;;3.05;;
50773;SDS011;36745;48.544;8.918;2024-03-23T19:23:47;10.05;;;4.03;;
50773;SDS011;36745;48.544;8.918;2024-03-23T19:27:06;27.77;;;11.93;;
50773;SDS011;36745;48.544;8.918;2024-03-23T19:30:26;16.05;;;6.40;;
50773;SDS011;36745;48.544;8.918;2024-03-23T19:33:46;9.25;;;2.83;;
50773;SDS011;36745;48.544;8.918;2024-03-23T19:37:06;4.85;;;1.77;;
50773;SDS011;36745;48.544;8.918;2024-03-23T19:40:25;2.70;;;1.30;;
50773;SDS011;36745;48.544;8.918;2024-03-23T19:43:45;5.50;;;1.60;;
50773;SDS011;36745;48.544;8.918;2024-03-23T19:47:05;3.75;;;1.40;;
50773;SDS011;36745;48.544;8.918;2024-03-23T19:50:25;5.53;;;1.67;;
50773;SDS011;36745;48.544;8.918;2024-03-23T19:53:45;5.35;;;1.90;;
50773;SDS011;36745;48.544;8.918;2024-03-23T19:57:05;5.53;;;1.90;;
50773;SDS011;36745;48.544;8.918;2024-03-23T20:00:25;4.30;;;1.90;;
50773;SDS011;36745;48.544;8.918;2024-03-23T20:03:45;4.82;;;1.77;;
50773;SDS011;36745;48.544;8.918;2024-03-23T20:07:05;3.25;;;1.90;;
50773;SDS011;36745;48.544;8.918;2024-03-23T20:10:24;5.95;;;2.20;;
50773;SDS011;36745;48.544;8.918;2024-03-23T20:13:44;4.25;;;2.10;;
50773;SDS011;36745;48.544;8.918;2024-03-23T20:17:04;5.72;;;1.90;;
50773;SDS011;36745;48.544;8.918;2024-03-23T20:20:24;4.70;;;1.60;;
50773;SDS011;36745;48.544;8.918;2024-03-23T20:23:43;5.80;;;1.85;;
50773;SDS011;36745;48.544;8.918;2024-03-23T20:27:03;15.82;;;5.65;;
50773;SDS011;36745;48.544;8.918;2024-03-23T20:30:24;34.72;;;13.35;;
50773;SDS011;36745;48.544;8.918;2024-03-23T20:33:44;11.48;;;4.88;;
50773;SDS011;36745;48.544;8.918;2024-03-23T20:37:04;6.47;;;2.55;;
50773;SDS011;36745;48.544;8.918;2024-03-23T20:40:24;40.10;;;17.52;;
50773;SDS011;36745;48.544;8.918;2024-03-23T20:43:43;10.63;;;4.57;;
50773;SDS011;36745;48.544;8.918;2024-03-23T20:47:06;13.93;;;6.10;;
50773;SDS011;36745;48.544;8.918;2024-03-23T20:50:26;16.58;;;7.60;;
50773;SDS011;36745;48.544;8.918;2024-03-23T20:53:46;24.08;;;10.75;;
50773;SDS011;36745;48.544;8.918;2024-03-23T20:57:06;6.90;;;2.70;;
50773;SDS011;36745;48.544;8.918;2024-03-23T21:00:26;8.85;;;4.75;;
50773;SDS011;36745;48.544;8.918;2024-03-23T21:03:45;47.25;;;25.67;;
50773;SDS011;36745;48.544;8.918;2024-03-23T21:07:05;13.05;;;5.88;;
50773;SDS011;36745;48.544;8.918;2024-03-23T21:10:25;8.27;;;3.50;;
50773;SDS011;36745;48.544;8.918;2024-03-23T21:13:46;8.25;;;3.97;;
50773;SDS011;36745;48.544;8.918;2024-03-23T21:17:07;4.88;;;2.63;;